Terminal Aerodrome Forecast
Issued by NWS

Home | Current Version | Previous Version | Text Only | Print | Product List | Glossary On
Versions: 1 2 3 4 5 6 7 8 9 10 11 12 13 14 15
000
FTUS45 KABQ 082336
TAFTCC
TAF
KTCC 082336Z 0900/0924 16006KT P6SM OVC025
     FM090600 22012KT P6SM BKN018
     FM091600 23017G25KT P6SM BKN200=

USA.gov is the U.S. government's official web portal to all federal, state and local government web resources and services.